Etusivu
METAR-TAF:

METAR-TAF

Lentoasemat :

Key West, Florida, Yhdysvallat

Leveyspiiri: 24-33-13N, Pituuspiiri: 081-45-13W, korkeus merenpinnasta: 1 m

Tämänhetkinen sää

Tämä raportti tehtiin 15 minuuttia sitten, kello 02.53 UTC
Tuuli 13 kn idästä/kaakosta
Lämpötila 24°C
Kosteus 74%
Ilmanpaine 1016 hPa
Näkyvyys: 16.1 km
Muutamia pilviä 2700 ft:n korkeudessa
Muutamia pilviä 3500 ft:n korkeudessa

METAR: KEYW 250253Z AUTO 12013KT 10SM FEW027 FEW035 24/19 A3001 RMK AO2 SLP162 T02440189 51013

Aika: 22:08 (03:08 UTC)

Sääennuste

Tämä raportti tehtiin 3 tuntia ja 37 minuuttia sitten, kello 23.31 UTC
Ennuste voimassa 25. päivästä klo 00 UTC - 25. päivään klo 24 UTC
Tuuli 10 kn idästä/kaakosta
Näkyvyys: 10 km
Muutamia pilviä 3500 ft:n korkeudessa
From 25. päivästä klo 0800 UTC
Tuuli 11 kn etelästä/kaakosta
Näkyvyys: 10 km
Hajanaisia pilviä 3500 ft:n korkeudessa

TAF: KEYW 242331Z 2500/2524 12010KT P6SM FEW035 FM250800 15011KT P6SM SCT035

Säähavainnot ja -ennusteet yli 4000 lentoasemalta (METAR- ja TAF-raportit).

Käytössä olevat sääasemat on merkitty karttaan keltaisilla ja punaisilla pisteillä.

Aseta hiiri pisteen päälle nähdäksesi sääaseman nimen.

Klikkaa sitten nähdäksesi säähavainnot ja -ennusteet.

Kartan vaihtaminen: klikkaa mustalla rastilla varustettuja vihreitä pisteitä, niin voit zoomata sisään; viivalla varustettua vihreää pistettä, niin voit zoomata ulos tai vihreitä nuolia, niin pääset viereisille kartoille.


METAR-TAF: